Cielo Di Vaiano — D5AQ2 — position and weather

sailwx.info

Track history (hours):
 
Tides and Currents Weather Stations Pressure Air Temp Water Temp Dewpoint Dewpoint Depression Visibility Wind Speed Wind Dir Waves Ship Positions

Cielo Di Vaiano

Last reported at 2014-Aug-13 23:21 UTC. Time now 2014-Aug-31 00:38 UTC.
Position N 31°16' W 119°25'.
Warning: this ship's position is 17 days out of date.

Length 183 m; draft 10.2 m.

Type: Cargo ship. MMSI: 636015421.

Date/timePositionNaut miles runAvg speedWind from/ knotsBaromVisibWave heightAir tempDewpointWater temp
2014-Aug-13 23:21N 31°16' W 119°25'2413.1
2014-Aug-13 21:30N 31°28' W 119°49'26110.7
2014-Aug-12 21:11N 34°38' W 123°23'812.7
2014-Aug-12 20:32N 34°44' W 123°17'1212.4
2014-Aug-12 19:33N 34°53' W 123°07'1212.3
2014-Aug-12 18:33N 35°02' W 122°56'1111.3
2014-Aug-12 17:33N 35°10' W 122°47'1312.9
2014-Aug-12 16:33N 35°20' W 122°56'1313.2
2014-Aug-12 15:33N 35°31' W 123°06'1313.2
2014-Aug-12 14:33N 35°42' W 123°16'1313.3
2014-Aug-12 13:33N 35°54' W 123°21'1313.3
2014-Aug-12 12:33N 36°07' W 123°26'1313.0
2014-Aug-12 11:33N 36°19' W 123°31'1312.9
2014-Aug-12 10:33N 36°32' W 123°35'1312.7
2014-Aug-12 09:33N 36°44' W 123°40'1312.5
2014-Aug-12 08:33N 36°56' W 123°45'1312.7
2014-Aug-12 07:33N 37°08' W 123°50'1312.6
2014-Aug-12 06:33N 37°20' W 123°55'1813.0
2014-Aug-12 05:10N 37°37' W 124°02'813.0
2014-Aug-12 04:33N 37°45' W 124°05'1412.9
2014-Aug-12 03:26N 37°58' W 124°10'1313.0
2014-Aug-12 02:25N 38°11' W 124°15'1213.1
2014-Aug-12 01:30N 38°22' W 124°20'1212.4
2014-Aug-12 00:32N 38°34' W 124°25'1212.7
2014-Aug-11 23:33N 38°46' W 124°30'1913.1
2014-Aug-11 22:08N 39°03' W 124°37'712.9
2014-Aug-11 21:33N 39°10' W 124°40'1413.0
2014-Aug-11 20:27N 39°24' W 124°45'4212.5
2014-Aug-11 17:04N 40°04' W 125°01'24112.9
2014-Aug-10 22:26N 43°59' W 126°15'1213.4
2014-Aug-10 21:33N 44°11' W 126°15'22412.4
2014-Aug-10 03:31N 47°54' W 125°46'1313.0
2014-Aug-10 02:32N 48°04' W 125°33'1312.9
2014-Aug-10 01:33N 48°14' W 125°22'1312.6
2014-Aug-10 00:33N 48°23' W 125°10'1111.2
2014-Aug-09 23:33N 48°31' W 124°57'1811.9
2014-Aug-09 22:05N 48°27' W 124°31'911.1
2014-Aug-09 21:17N 48°24' W 124°18'810.6
2014-Aug-09 20:33N 48°21' W 124°08'1111.0
2014-Aug-09 19:33N 48°17' W 123°52'1111.3
2014-Aug-09 18:33N 48°15' W 123°35'1110.9
2014-Aug-09 17:33N 48°23' W 123°23'1010.2
2014-Aug-09 16:33N 48°30' W 123°12'1514.7
2014-Aug-09 15:33N 48°44' W 123°08'1010.2
2014-Aug-09 14:33N 48°55' W 123°10'1514.8
2014-Aug-09 13:33N 49°06' W 123°24'1414.0
2014-Aug-09 12:33N 49°19' W 123°15'5 5.3
2014-Aug-09 11:32N 49°18' W 123°07'0 0.0
2014-Aug-09 10:32N 49°18' W 123°07'0 0.0
2014-Aug-09 09:32N 49°18' W 123°07'0 0.0
2014-Aug-09 08:29N 49°18' W 123°07'0 0.0
2014-Aug-09 07:32N 49°18' W 123°07'0 0.0
2014-Aug-09 06:32N 49°18' W 123°07'0 0.0
2014-Aug-09 05:32N 49°18' W 123°07'0 0.0
2014-Aug-09 04:32N 49°18' W 123°07'0 0.0
2014-Aug-09 03:32N 49°19' W 123°06'0 0.0
2014-Aug-09 02:32N 49°19' W 123°06'0 0.0
2014-Aug-09 01:32N 49°19' W 123°06'0 0.0
2014-Aug-09 00:32N 49°19' W 123°06'0 0.0
2014-Aug-08 23:32N 49°19' W 123°06'0 0.0
2014-Aug-08 22:32N 49°19' W 123°06'0 0.0
2014-Aug-08 21:32N 49°19' W 123°06'0 0.0
2014-Aug-08 20:32N 49°19' W 123°06'0 0.0
2014-Aug-08 19:32N 49°19' W 123°06'0 0.0
2014-Aug-08 18:32N 49°19' W 123°06'0 0.0
2014-Aug-08 17:32N 49°19' W 123°06'0 0.0
2014-Aug-08 16:32N 49°19' W 123°06'0 0.0
2014-Aug-08 15:32N 49°19' W 123°06'0 0.0
2014-Aug-08 14:32N 49°18' W 123°06'0 0.0
2014-Aug-08 13:32N 49°18' W 123°06'0 0.0
2014-Aug-08 12:32N 49°19' W 123°06'0 0.0
2014-Aug-08 11:32N 49°18' W 123°06'0 0.0
2014-Aug-08 10:32N 49°19' W 123°06'1 0.6
2014-Aug-08 09:33N 49°18' W 123°06'2 2.4
2014-Aug-08 08:32N 49°18' W 123°02'0 0.0
2014-Aug-08 07:32N 49°18' W 123°02'0 0.0
2014-Aug-08 06:32N 49°18' W 123°02'0 0.0
2014-Aug-08 05:32N 49°18' W 123°02'0 0.0
2014-Aug-08 04:32N 49°18' W 123°02'0 0.0
2014-Aug-08 03:32N 49°18' W 123°02'0 0.0
2014-Aug-08 02:32N 49°18' W 123°02'0 0.0
2014-Aug-08 01:32N 49°18' W 123°02'0 0.0
2014-Aug-08 00:32N 49°18' W 123°02'0 0.0
2014-Aug-07 23:32N 49°18' W 123°02'0 0.0
2014-Aug-07 22:32N 49°18' W 123°02'0 0.0
2014-Aug-07 21:32N 49°18' W 123°02'0 0.0
2014-Aug-07 20:32N 49°18' W 123°02'0 0.0
2014-Aug-07 19:32N 49°18' W 123°02'0 0.0
2014-Aug-07 18:32N 49°18' W 123°02'0 0.0
2014-Aug-07 17:32N 49°18' W 123°02'0 0.0
2014-Aug-07 16:32N 49°18' W 123°02'0 0.0
2014-Aug-07 15:32N 49°18' W 123°02'0 0.0
2014-Aug-07 14:32N 49°18' W 123°02'0 0.0
2014-Aug-07 13:32N 49°18' W 123°02'0 0.0
2014-Aug-07 12:32N 49°18' W 123°02'0 0.0
2014-Aug-07 11:32N 49°18' W 123°02'0 0.0
2014-Aug-07 10:32N 49°18' W 123°02'0 0.0
2014-Aug-07 09:32N 49°18' W 123°02'0 0.0
2014-Aug-07 08:32N 49°18' W 123°02'0 0.0
2014-Aug-07 07:32N 49°18' W 123°02'0 0.0
2014-Aug-07 06:32N 49°18' W 123°02'0 0.0
2014-Aug-07 05:32N 49°18' W 123°02'0 0.0
2014-Aug-07 04:32N 49°18' W 123°02'0 0.0
2014-Aug-07 03:32N 49°18' W 123°02'0 0.0
2014-Aug-07 02:32N 49°18' W 123°02'0 0.0
2014-Aug-07 01:32N 49°18' W 123°02'0 0.0
2014-Aug-07 00:32N 49°18' W 123°02'0 0.0
2014-Aug-06 23:32N 49°18' W 123°02'0 0.0
2014-Aug-06 22:32N 49°18' W 123°02'0 0.0
2014-Aug-06 21:32N 49°18' W 123°02'0 0.0
2014-Aug-06 20:32N 49°18' W 123°02'0 0.0
2014-Aug-06 19:32N 49°18' W 123°02'0 0.0
2014-Aug-06 18:32N 49°18' W 123°02'0 0.0
2014-Aug-06 17:33N 49°18' W 123°02'0 0.0
2014-Aug-06 16:32N 49°18' W 123°02'0 0.0
2014-Aug-06 15:32N 49°18' W 123°02'0 0.0
2014-Aug-06 14:32N 49°18' W 123°02'0 0.0
2014-Aug-06 13:32N 49°18' W 123°02'0 0.0
2014-Aug-06 12:32N 49°18' W 123°02'0 0.0
2014-Aug-06 11:32N 49°18' W 123°02'0 0.0
2014-Aug-06 10:32N 49°18' W 123°02'0 0.0
2014-Aug-06 09:32N 49°18' W 123°02'0 0.0
2014-Aug-06 08:32N 49°18' W 123°02'0 0.0
2014-Aug-06 07:32N 49°18' W 123°02'0 0.0
2014-Aug-06 06:32N 49°18' W 123°02'0 0.0
2014-Aug-06 05:32N 49°18' W 123°02'0 0.0
2014-Aug-06 04:32N 49°18' W 123°02'0 0.0
2014-Aug-06 03:32N 49°18' W 123°02'0 0.0
2014-Aug-06 02:32N 49°18' W 123°02'0 0.0
2014-Aug-06 01:32N 49°18' W 123°02'0 0.0
2014-Aug-06 00:32N 49°18' W 123°02'0 0.0
2014-Aug-05 23:32N 49°18' W 123°02'0 0.0
2014-Aug-05 22:32N 49°18' W 123°02'0 0.0
2014-Aug-05 21:32N 49°18' W 123°02'0 0.0
2014-Aug-05 20:32N 49°18' W 123°02'0 0.0
2014-Aug-05 19:32N 49°18' W 123°02'0 0.0
2014-Aug-05 18:32N 49°18' W 123°02'0 0.0
2014-Aug-05 17:32N 49°18' W 123°02'0 0.0
2014-Aug-05 16:32N 49°18' W 123°02'0 0.0
2014-Aug-05 15:32N 49°18' W 123°02'0 0.0
2014-Aug-05 14:32N 49°18' W 123°02'0 0.0
2014-Aug-05 13:32N 49°18' W 123°02'0 0.0
2014-Aug-05 12:32N 49°18' W 123°02'0 0.0
2014-Aug-05 11:32N 49°18' W 123°02'0 0.0
2014-Aug-05 10:32N 49°18' W 123°02'0 0.0
2014-Aug-05 09:32N 49°18' W 123°02'0 0.0
2014-Aug-05 08:32N 49°18' W 123°02'0 0.0
2014-Aug-05 07:32N 49°18' W 123°02'0 0.0
2014-Aug-05 06:32N 49°18' W 123°02'0 0.0
2014-Aug-05 05:32N 49°18' W 123°02'0 0.0
2014-Aug-05 04:32N 49°18' W 123°02'0 0.0
2014-Aug-05 03:32N 49°18' W 123°02'0 0.0
2014-Aug-05 02:32N 49°18' W 123°02'0 0.0
2014-Aug-05 01:32N 49°18' W 123°02'0 0.0
2014-Aug-05 00:32N 49°18' W 123°02'0 0.0
2014-Aug-04 23:32N 49°18' W 123°02'0 0.0
2014-Aug-04 22:32N 49°18' W 123°02'0 0.0
2014-Aug-04 21:32N 49°18' W 123°02'0 0.0
2014-Aug-04 20:32N 49°18' W 123°02'0 0.0
2014-Aug-04 19:32N 49°18' W 123°02'0 0.0
2014-Aug-04 18:32N 49°18' W 123°02'0 0.0
2014-Aug-04 17:32N 49°18' W 123°02'0 0.0
2014-Aug-04 16:32N 49°18' W 123°02'0 0.0
2014-Aug-04 15:32N 49°18' W 123°02'0 0.0
2014-Aug-04 14:29N 49°18' W 123°02'0 0.0
2014-Aug-04 13:32N 49°18' W 123°02'2 1.6
2014-Aug-04 12:33N 49°18' W 123°04'1110.7
2014-Aug-04 11:33N 49°19' W 123°21'1515.3
2014-Aug-04 10:33N 49°22' W 123°44'1615.4
2014-Aug-04 09:33N 49°28' W 124°06'1615.7
2014-Aug-04 08:33N 49°35' W 124°27'1615.7
2014-Aug-04 07:32N 49°45' W 124°47'6610.2
2014-Aug-04 01:06N 50°28' W 126°05'1911.6
2014-Aug-03 23:28N 50°30' W 126°34'  
Track history (hours):
 
Tides and Currents Weather Stations Pressure Air Temp Water Temp Dewpoint Dewpoint Depression Visibility Wind Speed Wind Dir Waves Ship Positions

Cielo Di Vaiano

Last reported at 2014-Aug-13 23:21 UTC. Time now 2014-Aug-31 00:38 UTC.
Position N 31°16' W 119°25'.
Warning: this ship's position is 17 days out of date.

Length 183 m; draft 10.2 m.

Type: Cargo ship. MMSI: 636015421.

Date/timePositionNaut miles runAvg speedWind from/ knotsBaromVisibWave heightAir tempDewpointWater temp
2014-Aug-13 23:21N 31°16' W 119°25'2413.1
2014-Aug-13 21:30N 31°28' W 119°49'26110.7
2014-Aug-12 21:11N 34°38' W 123°23'812.7
2014-Aug-12 20:32N 34°44' W 123°17'1212.4
2014-Aug-12 19:33N 34°53' W 123°07'1212.3
2014-Aug-12 18:33N 35°02' W 122°56'1111.3
2014-Aug-12 17:33N 35°10' W 122°47'1312.9
2014-Aug-12 16:33N 35°20' W 122°56'1313.2
2014-Aug-12 15:33N 35°31' W 123°06'1313.2
2014-Aug-12 14:33N 35°42' W 123°16'1313.3
2014-Aug-12 13:33N 35°54' W 123°21'1313.3
2014-Aug-12 12:33N 36°07' W 123°26'1313.0
2014-Aug-12 11:33N 36°19' W 123°31'1312.9
2014-Aug-12 10:33N 36°32' W 123°35'1312.7
2014-Aug-12 09:33N 36°44' W 123°40'1312.5
2014-Aug-12 08:33N 36°56' W 123°45'1312.7
2014-Aug-12 07:33N 37°08' W 123°50'1312.6
2014-Aug-12 06:33N 37°20' W 123°55'1813.0
2014-Aug-12 05:10N 37°37' W 124°02'813.0
2014-Aug-12 04:33N 37°45' W 124°05'1412.9
2014-Aug-12 03:26N 37°58' W 124°10'1313.0
2014-Aug-12 02:25N 38°11' W 124°15'1213.1
2014-Aug-12 01:30N 38°22' W 124°20'1212.4
2014-Aug-12 00:32N 38°34' W 124°25'1212.7
2014-Aug-11 23:33N 38°46' W 124°30'1913.1
2014-Aug-11 22:08N 39°03' W 124°37'712.9
2014-Aug-11 21:33N 39°10' W 124°40'1413.0
2014-Aug-11 20:27N 39°24' W 124°45'4212.5
2014-Aug-11 17:04N 40°04' W 125°01'24112.9
2014-Aug-10 22:26N 43°59' W 126°15'1213.4
2014-Aug-10 21:33N 44°11' W 126°15'22412.4
2014-Aug-10 03:31N 47°54' W 125°46'1313.0
2014-Aug-10 02:32N 48°04' W 125°33'1312.9
2014-Aug-10 01:33N 48°14' W 125°22'1312.6
2014-Aug-10 00:33N 48°23' W 125°10'1111.2
2014-Aug-09 23:33N 48°31' W 124°57'1811.9
2014-Aug-09 22:05N 48°27' W 124°31'911.1
2014-Aug-09 21:17N 48°24' W 124°18'810.6
2014-Aug-09 20:33N 48°21' W 124°08'1111.0
2014-Aug-09 19:33N 48°17' W 123°52'1111.3
2014-Aug-09 18:33N 48°15' W 123°35'1110.9
2014-Aug-09 17:33N 48°23' W 123°23'1010.2
2014-Aug-09 16:33N 48°30' W 123°12'1514.7
2014-Aug-09 15:33N 48°44' W 123°08'1010.2
2014-Aug-09 14:33N 48°55' W 123°10'1514.8
2014-Aug-09 13:33N 49°06' W 123°24'1414.0
2014-Aug-09 12:33N 49°19' W 123°15'5 5.3
2014-Aug-09 11:32N 49°18' W 123°07'0 0.0
2014-Aug-09 10:32N 49°18' W 123°07'0 0.0
2014-Aug-09 09:32N 49°18' W 123°07'0 0.0
2014-Aug-09 08:29N 49°18' W 123°07'0 0.0
2014-Aug-09 07:32N 49°18' W 123°07'0 0.0
2014-Aug-09 06:32N 49°18' W 123°07'0 0.0
2014-Aug-09 05:32N 49°18' W 123°07'0 0.0
2014-Aug-09 04:32N 49°18' W 123°07'0 0.0
2014-Aug-09 03:32N 49°19' W 123°06'0 0.0
2014-Aug-09 02:32N 49°19' W 123°06'0 0.0
2014-Aug-09 01:32N 49°19' W 123°06'0 0.0
2014-Aug-09 00:32N 49°19' W 123°06'0 0.0
2014-Aug-08 23:32N 49°19' W 123°06'0 0.0
2014-Aug-08 22:32N 49°19' W 123°06'0 0.0
2014-Aug-08 21:32N 49°19' W 123°06'0 0.0
2014-Aug-08 20:32N 49°19' W 123°06'0 0.0
2014-Aug-08 19:32N 49°19' W 123°06'0 0.0
2014-Aug-08 18:32N 49°19' W 123°06'0 0.0
2014-Aug-08 17:32N 49°19' W 123°06'0 0.0
2014-Aug-08 16:32N 49°19' W 123°06'0 0.0
2014-Aug-08 15:32N 49°19' W 123°06'0 0.0
2014-Aug-08 14:32N 49°18' W 123°06'0 0.0
2014-Aug-08 13:32N 49°18' W 123°06'0 0.0
2014-Aug-08 12:32N 49°19' W 123°06'0 0.0
2014-Aug-08 11:32N 49°18' W 123°06'0 0.0
2014-Aug-08 10:32N 49°19' W 123°06'1 0.6
2014-Aug-08 09:33N 49°18' W 123°06'2 2.4
2014-Aug-08 08:32N 49°18' W 123°02'0 0.0
2014-Aug-08 07:32N 49°18' W 123°02'0 0.0
2014-Aug-08 06:32N 49°18' W 123°02'0 0.0
2014-Aug-08 05:32N 49°18' W 123°02'0 0.0
2014-Aug-08 04:32N 49°18' W 123°02'0 0.0
2014-Aug-08 03:32N 49°18' W 123°02'0 0.0
2014-Aug-08 02:32N 49°18' W 123°02'0 0.0
2014-Aug-08 01:32N 49°18' W 123°02'0 0.0
2014-Aug-08 00:32N 49°18' W 123°02'0 0.0
2014-Aug-07 23:32N 49°18' W 123°02'0 0.0
2014-Aug-07 22:32N 49°18' W 123°02'0 0.0
2014-Aug-07 21:32N 49°18' W 123°02'0 0.0
2014-Aug-07 20:32N 49°18' W 123°02'0 0.0
2014-Aug-07 19:32N 49°18' W 123°02'0 0.0
2014-Aug-07 18:32N 49°18' W 123°02'0 0.0
2014-Aug-07 17:32N 49°18' W 123°02'0 0.0
2014-Aug-07 16:32N 49°18' W 123°02'0 0.0
2014-Aug-07 15:32N 49°18' W 123°02'0 0.0
2014-Aug-07 14:32N 49°18' W 123°02'0 0.0
2014-Aug-07 13:32N 49°18' W 123°02'0 0.0
2014-Aug-07 12:32N 49°18' W 123°02'0 0.0
2014-Aug-07 11:32N 49°18' W 123°02'0 0.0
2014-Aug-07 10:32N 49°18' W 123°02'0 0.0
2014-Aug-07 09:32N 49°18' W 123°02'0 0.0
2014-Aug-07 08:32N 49°18' W 123°02'0 0.0
2014-Aug-07 07:32N 49°18' W 123°02'0 0.0
2014-Aug-07 06:32N 49°18' W 123°02'0 0.0
2014-Aug-07 05:32N 49°18' W 123°02'0 0.0
2014-Aug-07 04:32N 49°18' W 123°02'0 0.0
2014-Aug-07 03:32N 49°18' W 123°02'0 0.0
2014-Aug-07 02:32N 49°18' W 123°02'0 0.0
2014-Aug-07 01:32N 49°18' W 123°02'0 0.0
2014-Aug-07 00:32N 49°18' W 123°02'0 0.0
2014-Aug-06 23:32N 49°18' W 123°02'0 0.0
2014-Aug-06 22:32N 49°18' W 123°02'0 0.0
2014-Aug-06 21:32N 49°18' W 123°02'0 0.0
2014-Aug-06 20:32N 49°18' W 123°02'0 0.0
2014-Aug-06 19:32N 49°18' W 123°02'0 0.0
2014-Aug-06 18:32N 49°18' W 123°02'0 0.0
2014-Aug-06 17:33N 49°18' W 123°02'0 0.0
2014-Aug-06 16:32N 49°18' W 123°02'0 0.0
2014-Aug-06 15:32N 49°18' W 123°02'0 0.0
2014-Aug-06 14:32N 49°18' W 123°02'0 0.0
2014-Aug-06 13:32N 49°18' W 123°02'0 0.0
2014-Aug-06 12:32N 49°18' W 123°02'0 0.0
2014-Aug-06 11:32N 49°18' W 123°02'0 0.0
2014-Aug-06 10:32N 49°18' W 123°02'0 0.0
2014-Aug-06 09:32N 49°18' W 123°02'0 0.0
2014-Aug-06 08:32N 49°18' W 123°02'0 0.0
2014-Aug-06 07:32N 49°18' W 123°02'0 0.0
2014-Aug-06 06:32N 49°18' W 123°02'0 0.0
2014-Aug-06 05:32N 49°18' W 123°02'0 0.0
2014-Aug-06 04:32N 49°18' W 123°02'0 0.0
2014-Aug-06 03:32N 49°18' W 123°02'0 0.0
2014-Aug-06 02:32N 49°18' W 123°02'0 0.0
2014-Aug-06 01:32N 49°18' W 123°02'0 0.0
2014-Aug-06 00:32N 49°18' W 123°02'0 0.0
2014-Aug-05 23:32N 49°18' W 123°02'0 0.0
2014-Aug-05 22:32N 49°18' W 123°02'0 0.0
2014-Aug-05 21:32N 49°18' W 123°02'0 0.0
2014-Aug-05 20:32N 49°18' W 123°02'0 0.0
2014-Aug-05 19:32N 49°18' W 123°02'0 0.0
2014-Aug-05 18:32N 49°18' W 123°02'0 0.0
2014-Aug-05 17:32N 49°18' W 123°02'0 0.0
2014-Aug-05 16:32N 49°18' W 123°02'0 0.0
2014-Aug-05 15:32N 49°18' W 123°02'0 0.0
2014-Aug-05 14:32N 49°18' W 123°02'0 0.0
2014-Aug-05 13:32N 49°18' W 123°02'0 0.0
2014-Aug-05 12:32N 49°18' W 123°02'0 0.0
2014-Aug-05 11:32N 49°18' W 123°02'0 0.0
2014-Aug-05 10:32N 49°18' W 123°02'0 0.0
2014-Aug-05 09:32N 49°18' W 123°02'0 0.0
2014-Aug-05 08:32N 49°18' W 123°02'0 0.0
2014-Aug-05 07:32N 49°18' W 123°02'0 0.0
2014-Aug-05 06:32N 49°18' W 123°02'0 0.0
2014-Aug-05 05:32N 49°18' W 123°02'0 0.0
2014-Aug-05 04:32N 49°18' W 123°02'0 0.0
2014-Aug-05 03:32N 49°18' W 123°02'0 0.0
2014-Aug-05 02:32N 49°18' W 123°02'0 0.0
2014-Aug-05 01:32N 49°18' W 123°02'0 0.0
2014-Aug-05 00:32N 49°18' W 123°02'0 0.0
2014-Aug-04 23:32N 49°18' W 123°02'0 0.0
2014-Aug-04 22:32N 49°18' W 123°02'0 0.0
2014-Aug-04 21:32N 49°18' W 123°02'0 0.0
2014-Aug-04 20:32N 49°18' W 123°02'0 0.0
2014-Aug-04 19:32N 49°18' W 123°02'0 0.0
2014-Aug-04 18:32N 49°18' W 123°02'0 0.0
2014-Aug-04 17:32N 49°18' W 123°02'0 0.0
2014-Aug-04 16:32N 49°18' W 123°02'0 0.0
2014-Aug-04 15:32N 49°18' W 123°02'0 0.0
2014-Aug-04 14:29N 49°18' W 123°02'0 0.0
2014-Aug-04 13:32N 49°18' W 123°02'2 1.6
2014-Aug-04 12:33N 49°18' W 123°04'1110.7
2014-Aug-04 11:33N 49°19' W 123°21'1515.3
2014-Aug-04 10:33N 49°22' W 123°44'1615.4
2014-Aug-04 09:33N 49°28' W 124°06'1615.7
2014-Aug-04 08:33N 49°35' W 124°27'1615.7
2014-Aug-04 07:32N 49°45' W 124°47'6610.2
2014-Aug-04 01:06N 50°28' W 126°05'1911.6
2014-Aug-03 23:28N 50°30' W 126°34'  

Dump ship's entire track history